Time;durP1;ratioP1;P1;durP2;ratioP2;P2;SDS_P1;SDS_P2;PMS_P1;PMS_P2;Temp;Humidity;BMP_temperature;BMP_pressure;BME280_temperature;BME280_humidity;BME280_pressure;Samples;Min_cycle;Max_cycle;Signal;HPM_P1;HPM_P2
2020/12/22 00:00:29;;;;;;;17.43;7.73;;;3.50;99.90;;;;;;4992955;28;20690;-68
2020/12/22 00:02:56;;;;;;;18.90;7.53;;;3.60;99.90;;;;;;4984808;28;20230;-68
2020/12/22 00:05:22;;;;;;;16.50;7.70;;;3.50;99.90;;;;;;4992570;28;20611;-69
2020/12/22 00:07:49;;;;;;;12.77;6.93;;;3.60;99.90;;;;;;4992529;28;20276;-69
2020/12/22 00:10:15;;;;;;;17.07;7.00;;;3.70;99.90;;;;;;4992997;28;20659;-67
2020/12/22 00:12:42;;;;;;;16.93;6.87;;;3.70;99.90;;;;;;4993128;28;20607;-67
2020/12/22 00:15:10;;;;;;;15.17;7.13;;;3.80;99.90;;;;;;4992533;28;20280;-67
2020/12/22 00:17:37;;;;;;;13.37;6.87;;;3.90;99.90;;;;;;4992755;28;20645;-67
2020/12/22 00:20:04;;;;;;;15.30;6.93;;;4.00;99.90;;;;;;4992262;28;20315;-69
2020/12/22 00:22:30;;;;;;;12.77;6.33;;;4.00;99.90;;;;;;4992709;28;20665;-66
2020/12/22 00:24:57;;;;;;;13.53;6.07;;;4.00;99.90;;;;;;4992552;28;20225;-67
2020/12/22 00:27:23;;;;;;;10.70;5.70;;;4.10;99.90;;;;;;4992048;28;20260;-66
2020/12/22 00:29:50;;;;;;;15.90;6.07;;;4.10;99.90;;;;;;4990923;28;20244;-66
2020/12/22 00:32:17;;;;;;;12.80;6.20;;;4.10;99.90;;;;;;4991946;28;20229;-68
2020/12/22 00:34:43;;;;;;;14.63;5.80;;;4.20;99.90;;;;;;4992700;28;20268;-69
2020/12/22 00:37:10;;;;;;;11.30;5.27;;;4.20;99.90;;;;;;4992163;28;20690;-68
2020/12/22 00:39:36;;;;;;;10.90;5.67;;;4.20;99.90;;;;;;4992144;28;20339;-64
2020/12/22 00:42:02;;;;;;;9.83;5.37;;;4.30;99.90;;;;;;4992434;28;20253;-67
2020/12/22 00:44:29;;;;;;;14.57;5.33;;;4.30;99.90;;;;;;4992199;28;20232;-65
2020/12/22 00:46:56;;;;;;;10.17;4.90;;;4.30;99.90;;;;;;4992159;28;20230;-66
2020/12/22 00:49:23;;;;;;;15.77;5.43;;;4.30;99.90;;;;;;4992110;28;20280;-68
2020/12/22 00:51:49;;;;;;;9.30;5.00;;;4.40;99.90;;;;;;4992091;28;20649;-68
2020/12/22 00:54:15;;;;;;;13.50;4.97;;;4.40;99.90;;;;;;4992363;28;20222;-67
2020/12/22 00:56:42;;;;;;;10.73;4.77;;;4.40;99.90;;;;;;4992007;28;20283;-67
2020/12/22 00:59:09;;;;;;;8.17;4.90;;;4.40;99.90;;;;;;4987463;28;20190;-65
2020/12/22 01:01:35;;;;;;;9.50;4.37;;;4.40;99.90;;;;;;4992437;28;20190;-67
2020/12/22 01:04:02;;;;;;;11.97;5.00;;;4.40;99.90;;;;;;4987638;28;20277;-71
2020/12/22 01:06:37;;;;;;;11.17;4.97;;;4.50;99.90;;;;;;4991859;28;20182;-69
2020/12/22 01:09:03;;;;;;;11.20;4.30;;;4.40;99.90;;;;;;4992106;28;20197;-68
2020/12/22 01:11:33;;;;;;;9.03;4.37;;;4.40;99.90;;;;;;4992059;28;20218;-68
2020/12/22 01:14:00;;;;;;;12.83;5.07;;;4.40;99.90;;;;;;4991801;28;20288;-66
2020/12/22 01:16:26;;;;;;;15.30;4.83;;;4.40;99.90;;;;;;4992169;28;20217;-66
2020/12/22 01:18:52;;;;;;;13.40;5.50;;;4.30;99.90;;;;;;4992065;28;20229;-67
2020/12/22 01:21:20;;;;;;;13.10;5.53;;;4.30;99.90;;;;;;4984000;28;20201;-69
2020/12/22 01:23:47;;;;;;;12.03;5.30;;;4.30;99.90;;;;;;4991720;28;20620;-66
2020/12/22 01:26:19;;;;;;;11.13;4.97;;;4.20;99.90;;;;;;4987409;28;20218;-69
2020/12/22 01:28:45;;;;;;;10.93;4.57;;;4.20;99.90;;;;;;4991643;28;20182;-67
2020/12/22 01:31:11;;;;;;;8.90;5.00;;;4.20;99.90;;;;;;4991790;28;20228;-69
2020/12/22 01:33:38;;;;;;;10.73;5.17;;;4.20;99.90;;;;;;4985337;28;20633;-68
2020/12/22 01:36:04;;;;;;;9.80;4.97;;;4.20;99.90;;;;;;4992813;28;20301;-69
2020/12/22 01:38:32;;;;;;;8.93;5.23;;;4.20;99.90;;;;;;4995439;28;20300;-65
2020/12/22 01:40:58;;;;;;;9.63;5.20;;;4.20;99.90;;;;;;4995323;28;20252;-69
2020/12/22 01:43:24;;;;;;;13.53;5.53;;;4.30;99.90;;;;;;4995113;28;20221;-66
2020/12/22 01:45:51;;;;;;;12.77;4.73;;;4.30;99.90;;;;;;4995473;28;20218;-66
2020/12/22 01:48:17;;;;;;;12.07;5.27;;;4.30;99.90;;;;;;4994453;28;20197;-70
2020/12/22 01:50:45;;;;;;;7.13;4.57;;;4.30;99.90;;;;;;4995164;28;20283;-66
2020/12/22 01:53:11;;;;;;;13.87;5.17;;;4.40;99.90;;;;;;4994762;28;20240;-68
2020/12/22 01:55:41;;;;;;;7.27;4.53;;;4.40;99.90;;;;;;4991348;28;20667;-67
2020/12/22 01:58:08;;;;;;;10.13;5.00;;;4.50;99.90;;;;;;4991178;28;20225;-65
2020/12/22 02:00:34;;;;;;;11.63;5.00;;;4.50;99.90;;;;;;4994200;28;20221;-69
2020/12/22 02:03:01;;;;;;;11.43;4.97;;;4.40;99.90;;;;;;4995099;28;20229;-68
2020/12/22 02:05:28;;;;;;;13.93;5.13;;;4.40;99.90;;;;;;4994396;28;20190;-66
2020/12/22 02:07:55;;;;;;;12.23;4.90;;;4.40;99.90;;;;;;4994866;28;20268;-64
2020/12/22 02:10:21;;;;;;;9.87;5.10;;;4.30;99.90;;;;;;4994588;28;20292;-65
2020/12/22 02:12:48;;;;;;;12.13;4.77;;;4.30;99.90;;;;;;4994065;28;20229;-67
2020/12/22 02:15:15;;;;;;;8.13;4.00;;;4.40;99.90;;;;;;4994840;28;20201;-67
2020/12/22 02:17:41;;;;;;;8.07;3.80;;;4.50;99.90;;;;;;4994052;28;20664;-65
2020/12/22 02:20:08;;;;;;;8.43;3.80;;;4.50;99.90;;;;;;4992320;28;20286;-67
2020/12/22 02:22:35;;;;;;;12.53;4.80;;;4.40;99.90;;;;;;4989820;28;20190;-68
2020/12/22 02:25:02;;;;;;;15.83;4.67;;;4.30;99.90;;;;;;4994241;28;20644;-66
2020/12/22 02:27:28;;;;;;;9.47;4.40;;;4.20;99.90;;;;;;4994379;28;20233;-66
2020/12/22 02:29:54;;;;;;;10.40;4.33;;;4.10;99.90;;;;;;4987808;28;20221;-66
2020/12/22 02:32:21;;;;;;;11.90;4.83;;;4.00;99.90;;;;;;4994576;28;20198;-66
2020/12/22 02:34:48;;;;;;;10.53;4.67;;;3.90;99.90;;;;;;4993670;28;20229;-69
2020/12/22 02:37:20;;;;;;;11.80;4.70;;;3.80;99.90;;;;;;4988436;28;20655;-68
2020/12/22 02:39:48;;;;;;;11.87;4.97;;;3.80;99.90;;;;;;4994431;28;20190;-69
2020/12/22 02:42:17;;;;;;;13.87;5.50;;;3.60;99.90;;;;;;4989795;28;20628;-68
2020/12/22 02:44:44;;;;;;;12.63;5.37;;;3.50;99.90;;;;;;4992215;28;20280;-69
2020/12/22 02:47:12;;;;;;;14.40;5.87;;;3.50;99.90;;;;;;4993435;28;20259;-66
2020/12/22 02:49:38;;;;;;;16.77;6.73;;;3.40;99.90;;;;;;4993575;28;20186;-70
2020/12/22 02:52:05;;;;;;;12.30;6.20;;;3.50;99.90;;;;;;4992318;28;20625;-66
2020/12/22 02:54:31;;;;;;;17.83;6.77;;;3.50;99.90;;;;;;4993937;28;20568;-67
2020/12/22 02:56:58;;;;;;;18.27;6.30;;;3.50;99.90;;;;;;4993386;28;20253;-68
2020/12/22 02:59:25;;;;;;;17.07;6.43;;;3.50;99.90;;;;;;4993543;28;20289;-69
2020/12/22 03:01:51;;;;;;;18.13;6.70;;;3.40;99.90;;;;;;4989832;28;20218;-68
2020/12/22 03:04:18;;;;;;;18.13;6.33;;;3.30;99.90;;;;;;4994178;28;20221;-68
2020/12/22 03:06:45;;;;;;;19.67;6.60;;;3.30;99.90;;;;;;4993379;28;20185;-68
2020/12/22 03:09:12;;;;;;;14.27;6.23;;;3.20;99.90;;;;;;4993843;28;20194;-70
2020/12/22 03:11:38;;;;;;;15.93;6.20;;;3.10;99.90;;;;;;4993530;28;20678;-69
2020/12/22 03:14:05;;;;;;;15.93;6.87;;;3.10;99.90;;;;;;4993390;28;20221;-69
2020/12/22 03:16:32;;;;;;;19.70;6.40;;;3.10;99.90;;;;;;4993455;28;20217;-68
2020/12/22 03:18:58;;;;;;;17.20;7.13;;;3.00;99.90;;;;;;4992921;28;20226;-67
2020/12/22 03:21:25;;;;;;;17.60;6.83;;;2.90;99.90;;;;;;4992878;28;20221;-70
2020/12/22 03:23:51;;;;;;;19.70;7.20;;;2.90;99.90;;;;;;4993405;28;20201;-69
2020/12/22 03:26:18;;;;;;;20.87;6.83;;;2.80;99.90;;;;;;4993172;28;20638;-68
2020/12/22 03:28:44;;;;;;;16.83;7.27;;;2.70;99.90;;;;;;4993404;28;20240;-67
2020/12/22 03:31:11;;;;;;;21.60;7.07;;;2.70;99.90;;;;;;4993292;28;20198;-67
2020/12/22 03:33:38;;;;;;;14.93;7.30;;;2.70;99.90;;;;;;4993108;28;20579;-72
2020/12/22 03:36:04;;;;;;;23.33;7.57;;;2.80;99.90;;;;;;4987724;28;20277;-69
2020/12/22 03:38:30;;;;;;;16.83;7.23;;;2.80;99.90;;;;;;4993111;28;20217;-67
2020/12/22 03:40:57;;;;;;;13.83;7.07;;;2.70;99.90;;;;;;4992778;28;20735;-66
2020/12/22 03:43:23;;;;;;;21.83;7.60;;;2.90;99.90;;;;;;4993080;28;20347;-67
2020/12/22 03:45:50;;;;;;;32.27;8.33;;;2.80;99.90;;;;;;4993240;28;20593;-68
2020/12/22 03:48:17;;;;;;;19.97;7.30;;;2.80;99.90;;;;;;4992855;28;20206;-70
2020/12/22 03:50:46;;;;;;;20.47;7.80;;;2.70;99.90;;;;;;4991631;28;20256;-66
2020/12/22 03:53:13;;;;;;;19.23;7.87;;;2.80;99.90;;;;;;4992620;28;20248;-69
2020/12/22 03:55:39;;;;;;;21.33;8.00;;;2.70;99.90;;;;;;4993120;28;20221;-69
2020/12/22 03:58:06;;;;;;;27.13;7.60;;;2.70;99.90;;;;;;4992201;28;20613;-69
2020/12/22 04:00:32;;;;;;;24.43;8.43;;;2.70;99.90;;;;;;4992611;28;20313;-68
2020/12/22 04:02:59;;;;;;;17.87;7.53;;;2.60;99.90;;;;;;4992750;28;20204;-70
2020/12/22 04:05:26;;;;;;;20.60;8.50;;;2.60;99.90;;;;;;4992937;28;20245;-69
2020/12/22 04:07:52;;;;;;;23.33;8.73;;;2.70;99.90;;;;;;4993013;28;20238;-68
2020/12/22 04:10:19;;;;;;;19.20;7.90;;;2.80;99.90;;;;;;4992784;28;20610;-70
2020/12/22 04:12:45;;;;;;;18.13;7.77;;;2.80;99.90;;;;;;4992396;28;20668;-68
2020/12/22 04:15:11;;;;;;;15.20;7.30;;;2.80;99.90;;;;;;4992543;28;20214;-68
2020/12/22 04:17:41;;;;;;;21.57;7.90;;;2.80;99.90;;;;;;4992523;28;20625;-68
2020/12/22 04:20:07;;;;;;;15.77;7.77;;;2.80;99.90;;;;;;4990103;28;20198;-68
2020/12/22 04:22:34;;;;;;;18.73;7.73;;;2.90;99.90;;;;;;4992279;28;20731;-69
2020/12/22 04:25:01;;;;;;;20.30;7.33;;;3.00;99.90;;;;;;4992499;28;20583;-68
2020/12/22 04:27:27;;;;;;;19.10;7.30;;;3.00;99.90;;;;;;4990884;28;20283;-71
2020/12/22 04:29:53;;;;;;;21.43;7.57;;;3.00;99.90;;;;;;4992236;28;20573;-69
2020/12/22 04:32:20;;;;;;;24.00;7.50;;;3.10;99.90;;;;;;4991609;28;20197;-69
2020/12/22 04:34:48;;;;;;;18.73;7.23;;;3.20;99.90;;;;;;4986580;28;20212;-66
2020/12/22 04:37:14;;;;;;;18.97;6.97;;;3.20;99.90;;;;;;4991892;28;20387;-68
2020/12/22 04:39:41;;;;;;;17.80;7.17;;;3.30;99.90;;;;;;4992619;28;20221;-70
2020/12/22 04:42:09;;;;;;;13.70;6.20;;;3.30;99.90;;;;;;4992129;28;20189;-70
2020/12/22 04:44:36;;;;;;;17.07;6.37;;;3.40;99.90;;;;;;4984172;28;20221;-70
2020/12/22 04:47:05;;;;;;;18.70;6.83;;;3.50;99.90;;;;;;4991638;28;20197;-70
2020/12/22 04:49:32;;;;;;;15.30;6.23;;;3.50;99.90;;;;;;4991426;28;20233;-68
2020/12/22 04:52:00;;;;;;;10.40;6.23;;;3.60;99.90;;;;;;4992448;28;20244;-69
2020/12/22 04:54:26;;;;;;;11.03;6.00;;;3.60;99.90;;;;;;4992117;28;20275;-68
2020/12/22 04:56:53;;;;;;;15.20;6.03;;;3.40;99.90;;;;;;4992241;28;20684;-72
2020/12/22 04:59:20;;;;;;;10.53;5.80;;;3.30;99.90;;;;;;4991990;28;20236;-70
2020/12/22 05:01:48;;;;;;;13.27;6.33;;;3.20;99.90;;;;;;4992615;28;20257;-70
2020/12/22 05:04:15;;;;;;;10.50;5.50;;;3.10;99.90;;;;;;4992736;28;20296;-68
2020/12/22 05:06:41;;;;;;;21.10;6.40;;;3.10;99.90;;;;;;4992674;28;20198;-70
2020/12/22 05:09:08;;;;;;;18.77;6.53;;;3.00;99.90;;;;;;4992432;28;20659;-72
2020/12/22 05:11:37;;;;;;;14.80;6.20;;;3.00;99.90;;;;;;4995942;28;20193;-68
2020/12/22 05:14:06;;;;;;;14.90;5.70;;;3.00;99.90;;;;;;4996716;28;20201;-68
2020/12/22 05:16:36;;;;;;;19.30;6.20;;;2.90;99.90;;;;;;4994770;28;20275;-71
2020/12/22 05:19:03;;;;;;;17.87;6.00;;;2.80;99.90;;;;;;4996665;28;20279;-69
2020/12/22 05:21:36;;;;;;;13.77;6.13;;;2.70;99.90;;;;;;4996426;28;20221;-68
2020/12/22 05:24:03;;;;;;;15.47;6.67;;;2.60;99.90;;;;;;4993147;28;20190;-69
2020/12/22 05:26:33;;;;;;;16.13;6.40;;;2.70;99.90;;;;;;4996240;28;20224;-67
2020/12/22 05:29:09;;;;;;;16.23;6.63;;;2.80;99.90;;;;;;4996336;28;20200;-70
2020/12/22 05:31:41;;;;;;;26.43;7.50;;;2.80;99.90;;;;;;4995954;28;20186;-67
2020/12/22 05:34:10;;;;;;;17.30;6.90;;;2.70;99.90;;;;;;4995889;28;20209;-72
2020/12/22 05:36:39;;;;;;;16.77;6.60;;;2.70;99.90;;;;;;4996126;28;20196;-70
2020/12/22 05:39:08;;;;;;;15.33;6.53;;;2.60;99.90;;;;;;4996125;28;20198;-70
2020/12/22 05:41:35;;;;;;;14.33;7.00;;;2.60;99.90;;;;;;4995671;28;20190;-69
2020/12/22 05:44:02;;;;;;;19.40;6.77;;;2.60;99.90;;;;;;4990533;28;20217;-69
2020/12/22 05:46:31;;;;;;;16.10;6.60;;;2.50;99.90;;;;;;4995822;28;20660;-69
2020/12/22 05:49:00;;;;;;;22.30;6.80;;;2.50;99.90;;;;;;4995733;28;20228;-67
2020/12/22 05:51:26;;;;;;;20.13;6.80;;;2.50;99.90;;;;;;4995844;28;20272;-67
2020/12/22 05:53:54;;;;;;;18.47;6.87;;;2.50;99.90;;;;;;4995587;28;20257;-67
2020/12/22 05:56:23;;;;;;;23.97;7.60;;;2.60;99.90;;;;;;4996076;28;20198;-67
2020/12/22 05:58:50;;;;;;;18.03;6.70;;;2.60;99.90;;;;;;4995026;28;20253;-67
2020/12/22 06:01:29;;;;;;;21.27;6.73;;;2.70;99.90;;;;;;4996301;28;20201;-69
2020/12/22 06:03:57;;;;;;;18.00;6.70;;;2.70;99.90;;;;;;4995590;28;20600;-71
2020/12/22 06:06:26;;;;;;;17.07;6.37;;;2.80;99.90;;;;;;4996314;28;20289;-71
2020/12/22 06:08:53;;;;;;;21.03;6.60;;;2.90;99.90;;;;;;4989412;28;20337;-69
2020/12/22 06:11:19;;;;;;;19.23;6.63;;;2.90;99.90;;;;;;4993962;28;20224;-69
2020/12/22 06:13:48;;;;;;;18.10;6.80;;;3.00;99.90;;;;;;4992716;28;20190;-71
2020/12/22 06:16:16;;;;;;;14.90;5.93;;;3.00;99.90;;;;;;4995483;28;20216;-69
2020/12/22 06:18:45;;;;;;;12.00;5.47;;;3.00;99.90;;;;;;4994698;28;20256;-68
2020/12/22 06:21:14;;;;;;;11.53;5.57;;;3.00;99.90;;;;;;4994652;28;20190;-70
2020/12/22 06:23:41;;;;;;;14.10;6.43;;;3.00;99.90;;;;;;4995478;28;20590;-67
2020/12/22 06:26:07;;;;;;;19.07;5.90;;;3.10;99.90;;;;;;4995690;28;20640;-69
2020/12/22 06:28:34;;;;;;;18.00;5.67;;;3.10;99.90;;;;;;4994811;28;20236;-68
2020/12/22 06:31:15;;;;;;;20.63;5.63;;;3.10;99.90;;;;;;4995773;28;20394;-70
2020/12/22 06:33:42;;;;;;;16.63;5.23;;;3.10;99.90;;;;;;4995503;28;20186;-70
2020/12/22 06:36:10;;;;;;;15.57;5.30;;;3.10;99.90;;;;;;4995011;28;20706;-69
2020/12/22 06:38:58;;;;;;;14.43;5.20;;;3.10;99.90;;;;;;4995381;28;20221;-69
2020/12/22 06:41:41;;;;;;;10.77;4.93;;;3.10;99.90;;;;;;4980118;28;20225;-71
2020/12/22 06:44:13;;;;;;;10.97;4.67;;;3.20;99.90;;;;;;4993836;28;20197;-69
2020/12/22 06:46:41;;;;;;;19.03;4.87;;;3.20;99.90;;;;;;4995025;28;20244;-69
2020/12/22 06:49:08;;;;;;;12.30;4.93;;;3.30;99.90;;;;;;4994521;28;20201;-70
2020/12/22 06:51:36;;;;;;;10.63;5.40;;;3.30;99.90;;;;;;4994109;28;20201;-72
2020/12/22 06:54:04;;;;;;;15.33;4.47;;;3.30;99.90;;;;;;4993949;28;20253;-69
2020/12/22 06:56:44;;;;;;;10.23;4.33;;;3.30;99.90;;;;;;4994633;28;20594;-71
2020/12/22 06:59:11;;;;;;;11.33;4.50;;;3.30;99.90;;;;;;4994381;28;20640;-70
2020/12/22 07:01:39;;;;;;;10.13;4.53;;;3.30;99.90;;;;;;4993620;28;20620;-69
2020/12/22 07:04:17;;;;;;;9.23;4.50;;;3.30;99.90;;;;;;4992763;28;20296;-67
2020/12/22 07:07:01;;;;;;;11.33;4.77;;;3.40;99.90;;;;;;4994232;28;20224;-71
2020/12/22 07:09:29;;;;;;;11.63;4.50;;;3.40;99.90;;;;;;4986560;28;20178;-68
2020/12/22 07:12:10;;;;;;;8.33;4.20;;;3.50;99.90;;;;;;4993444;28;20225;-70
2020/12/22 07:14:39;;;;;;;8.90;4.20;;;3.50;99.90;;;;;;4993437;28;20268;-69
2020/12/22 07:17:05;;;;;;;17.37;4.10;;;3.50;99.90;;;;;;4993363;28;20253;-70
2020/12/22 07:19:33;;;;;;;8.73;4.20;;;3.60;99.90;;;;;;4993329;28;20640;-68
2020/12/22 07:22:01;;;;;;;9.23;4.30;;;3.50;99.90;;;;;;4994222;28;20606;-69
2020/12/22 07:24:29;;;;;;;8.27;3.97;;;3.60;99.90;;;;;;4994151;28;20257;-70
2020/12/22 07:26:56;;;;;;;12.70;4.57;;;3.60;99.90;;;;;;4993516;28;20221;-67
2020/12/22 07:29:22;;;;;;;12.60;4.70;;;3.60;99.90;;;;;;4993536;28;20225;-69
2020/12/22 07:31:49;;;;;;;7.50;4.27;;;3.60;99.90;;;;;;4993437;28;20275;-69
2020/12/22 07:34:16;;;;;;;9.47;4.30;;;3.70;99.90;;;;;;4992027;28;20790;-68
2020/12/22 07:36:43;;;;;;;17.43;5.00;;;3.70;99.90;;;;;;4992929;28;20225;-70
2020/12/22 07:39:18;;;;;;;11.60;4.60;;;3.80;99.90;;;;;;4992655;28;20260;-71
2020/12/22 07:41:46;;;;;;;16.93;4.77;;;3.90;99.90;;;;;;4992129;28;20203;-71
2020/12/22 07:44:15;;;;;;;13.27;5.07;;;3.90;99.90;;;;;;4993191;28;20221;-69
2020/12/22 07:46:43;;;;;;;16.43;5.20;;;3.90;99.90;;;;;;4992635;28;20228;-69
2020/12/22 07:49:11;;;;;;;16.23;5.50;;;4.00;99.90;;;;;;4992750;28;20675;-70
2020/12/22 07:51:41;;;;;;;12.37;5.80;;;4.10;99.90;;;;;;4993185;28;20299;-68
2020/12/22 07:54:08;;;;;;;10.63;5.40;;;4.20;99.90;;;;;;4991426;28;20316;-71
2020/12/22 07:56:36;;;;;;;18.10;6.87;;;4.20;99.90;;;;;;4993005;28;20225;-69
2020/12/22 07:59:05;;;;;;;15.60;6.53;;;4.40;99.90;;;;;;4989866;28;20301;-68
2020/12/22 08:01:32;;;;;;;18.83;7.60;;;4.40;99.90;;;;;;4992631;28;20217;-66
2020/12/22 08:03:59;;;;;;;18.27;7.53;;;4.60;99.90;;;;;;4992750;28;20497;-68
2020/12/22 08:06:25;;;;;;;22.30;8.57;;;4.80;99.90;;;;;;4993131;28;20218;-70
2020/12/22 08:08:59;;;;;;;21.53;8.93;;;5.00;99.90;;;;;;4992260;28;20237;-69
2020/12/22 08:11:26;;;;;;;20.17;8.80;;;5.10;99.90;;;;;;4992512;28;20202;-72
2020/12/22 08:13:53;;;;;;;20.60;8.50;;;5.20;99.90;;;;;;4993024;28;20718;-69
2020/12/22 08:16:20;;;;;;;24.30;9.47;;;5.20;99.90;;;;;;4992818;28;20616;-68
2020/12/22 08:18:48;;;;;;;26.50;9.80;;;5.20;99.90;;;;;;4984529;28;20308;-72
2020/12/22 08:21:17;;;;;;;21.00;8.40;;;5.30;99.90;;;;;;4993239;28;20285;-70
2020/12/22 08:23:44;;;;;;;21.07;8.60;;;5.30;99.90;;;;;;4992876;28;20198;-65
2020/12/22 08:26:12;;;;;;;20.70;8.17;;;5.30;99.90;;;;;;4992686;28;20224;-69
2020/12/22 08:28:39;;;;;;;21.57;7.40;;;5.40;99.90;;;;;;4992697;28;20327;-69
2020/12/22 08:31:10;;;;;;;18.20;8.07;;;5.50;99.90;;;;;;4992980;28;20616;-68
2020/12/22 08:33:40;;;;;;;17.67;6.77;;;5.50;99.90;;;;;;4992655;28;20233;-68
2020/12/22 08:36:11;;;;;;;20.87;7.23;;;5.40;99.90;;;;;;4987782;28;20595;-67
2020/12/22 08:38:37;;;;;;;21.27;7.47;;;5.40;99.90;;;;;;4990749;28;20220;-74
2020/12/22 08:41:17;;;;;;;21.33;7.03;;;5.40;99.90;;;;;;4992971;28;20619;-70
2020/12/22 08:43:52;;;;;;;17.93;6.73;;;5.40;99.90;;;;;;4992823;28;20216;-67
2020/12/22 08:46:21;;;;;;;17.43;6.47;;;5.40;99.90;;;;;;4992638;28;20220;-71
2020/12/22 08:48:48;;;;;;;14.43;6.57;;;5.40;99.90;;;;;;4992476;28;20233;-70
2020/12/22 08:51:25;;;;;;;16.67;6.10;;;5.40;99.90;;;;;;4984170;28;20663;-69
2020/12/22 08:53:53;;;;;;;18.07;6.57;;;5.40;99.90;;;;;;4986483;28;20272;-69
2020/12/22 08:56:23;;;;;;;14.23;6.20;;;5.40;99.90;;;;;;4986556;28;20190;-70
2020/12/22 08:58:54;;;;;;;18.53;6.10;;;5.40;99.90;;;;;;4992422;28;20562;-67
2020/12/22 09:01:22;;;;;;;11.97;5.43;;;5.40;99.90;;;;;;4985668;28;20182;-69
2020/12/22 09:03:57;;;;;;;15.77;5.67;;;5.40;99.90;;;;;;4992063;28;20194;-71
2020/12/22 09:06:38;;;;;;;13.77;5.60;;;5.40;99.90;;;;;;4992375;28;20197;-70
2020/12/22 09:09:07;;;;;;;12.13;5.07;;;5.40;99.90;;;;;;4992298;28;20244;-69
2020/12/22 09:11:34;;;;;;;16.43;5.70;;;5.40;99.90;;;;;;4992132;28;20225;-71
2020/12/22 09:14:02;;;;;;;13.63;5.43;;;5.40;99.90;;;;;;4991263;28;20209;-67
2020/12/22 09:16:53;;;;;;;13.40;4.90;;;5.40;99.90;;;;;;4986081;28;20182;-68
2020/12/22 09:19:22;;;;;;;15.53;4.90;;;5.50;99.90;;;;;;4992081;28;20225;-68
2020/12/22 09:21:58;;;;;;;12.70;4.67;;;5.50;99.90;;;;;;4992242;28;20198;-67
2020/12/22 09:24:24;;;;;;;12.90;4.80;;;5.60;99.90;;;;;;4992489;28;20253;-69
2020/12/22 09:26:59;;;;;;;12.50;4.03;;;5.50;99.90;;;;;;4992703;28;20226;-68
2020/12/22 09:29:27;;;;;;;12.47;4.33;;;5.50;99.90;;;;;;4992219;28;20636;-69
2020/12/22 09:31:54;;;;;;;17.10;4.63;;;5.60;99.90;;;;;;4992297;28;20209;-68
2020/12/22 09:34:22;;;;;;;11.90;4.17;;;5.60;99.90;;;;;;4992063;28;20251;-69
2020/12/22 09:36:53;;;;;;;10.83;4.57;;;5.60;99.90;;;;;;4992845;28;20213;-67
2020/12/22 09:39:20;;;;;;;13.20;4.87;;;5.60;99.90;;;;;;4992916;28;20607;-69
2020/12/22 09:41:47;;;;;;;16.40;4.80;;;5.60;99.90;;;;;;4992442;28;20241;-68
2020/12/22 09:44:14;;;;;;;11.53;5.17;;;5.60;99.90;;;;;;4991939;28;20237;-66
2020/12/22 09:46:41;;;;;;;8.40;4.37;;;5.60;99.90;;;;;;4991677;28;20246;-70
2020/12/22 09:49:07;;;;;;;13.97;5.53;;;5.60;99.90;;;;;;4992304;28;20615;-73
2020/12/22 09:51:35;;;;;;;12.87;5.13;;;5.70;99.90;;;;;;4992235;28;20293;-69
2020/12/22 09:54:01;;;;;;;11.80;5.37;;;5.60;99.90;;;;;;4992188;28;20253;-67
2020/12/22 09:56:30;;;;;;;13.80;5.47;;;5.60;99.90;;;;;;4992255;28;20201;-70
2020/12/22 09:58:56;;;;;;;14.43;5.47;;;5.60;99.90;;;;;;4995303;28;20387;-68
2020/12/22 10:01:24;;;;;;;12.80;5.53;;;5.60;99.90;;;;;;4995481;28;20198;-69
2020/12/22 10:03:51;;;;;;;12.93;5.80;;;5.70;99.90;;;;;;4995694;28;20686;-68
2020/12/22 10:06:19;;;;;;;13.43;5.50;;;5.60;99.90;;;;;;4995440;28;20218;-69
2020/12/22 10:08:46;;;;;;;15.03;5.73;;;5.70;99.90;;;;;;4994807;28;20232;-70
2020/12/22 10:11:13;;;;;;;14.43;6.50;;;5.70;99.90;;;;;;4995560;28;20603;-70
2020/12/22 10:13:40;;;;;;;17.03;6.07;;;5.70;99.90;;;;;;4994746;28;20675;-70
2020/12/22 10:16:08;;;;;;;14.40;6.60;;;5.70;99.90;;;;;;4994968;28;20178;-70
2020/12/22 10:18:34;;;;;;;21.67;7.60;;;5.70;99.90;;;;;;4995238;28;20225;-71
2020/12/22 10:21:05;;;;;;;15.53;6.70;;;5.70;99.90;;;;;;4993700;28;20229;-70
2020/12/22 10:23:32;;;;;;;17.67;7.07;;;5.70;99.90;;;;;;4994491;28;20193;-69
2020/12/22 10:26:02;;;;;;;13.77;7.07;;;5.70;99.90;;;;;;4994327;28;20635;-69
2020/12/22 10:28:29;;;;;;;21.17;7.57;;;5.80;99.90;;;;;;4989382;28;20229;-68
2020/12/22 10:30:55;;;;;;;16.23;7.50;;;5.80;99.90;;;;;;4993986;28;20659;-69
2020/12/22 10:33:22;;;;;;;17.17;7.23;;;5.70;99.90;;;;;;4992550;28;20284;-68
2020/12/22 10:35:49;;;;;;;21.90;8.20;;;5.80;99.90;;;;;;4994742;28;20193;-70
2020/12/22 10:38:15;;;;;;;17.53;8.40;;;5.70;99.90;;;;;;4994572;28;20329;-69
2020/12/22 10:40:42;;;;;;;19.63;7.73;;;5.80;99.90;;;;;;4995393;28;20272;-71
2020/12/22 10:43:09;;;;;;;18.43;8.00;;;5.80;99.90;;;;;;4995132;28;20570;-69
2020/12/22 10:45:35;;;;;;;21.60;9.03;;;5.80;99.90;;;;;;4994638;28;20225;-71
2020/12/22 10:48:02;;;;;;;22.00;8.60;;;5.80;99.90;;;;;;4994594;28;20198;-71
2020/12/22 10:50:29;;;;;;;24.33;9.17;;;5.80;99.90;;;;;;4994488;28;20193;-71
2020/12/22 10:52:55;;;;;;;15.80;7.20;;;5.70;99.90;;;;;;4994978;28;20565;-72
2020/12/22 10:55:23;;;;;;;23.23;9.77;;;5.80;99.90;;;;;;4995382;28;20280;-72
2020/12/22 10:57:50;;;;;;;25.93;10.17;;;5.80;99.90;;;;;;4994500;28;20229;-70
2020/12/22 11:00:17;;;;;;;24.03;9.50;;;5.80;99.90;;;;;;4994568;28;20201;-68
2020/12/22 11:02:45;;;;;;;19.60;9.67;;;5.80;99.90;;;;;;4988596;28;20249;-69
2020/12/22 11:05:11;;;;;;;19.53;9.13;;;5.80;99.90;;;;;;4974967;28;20194;-66
2020/12/22 11:07:42;;;;;;;23.83;9.53;;;5.80;99.90;;;;;;4974952;28;20269;-68
2020/12/22 11:10:08;;;;;;;25.47;10.90;;;5.80;99.90;;;;;;4975768;28;20190;-72
2020/12/22 11:12:35;;;;;;;22.83;9.83;;;5.80;99.90;;;;;;4978728;28;20193;-73
2020/12/22 11:15:01;;;;;;;21.43;9.03;;;5.80;99.90;;;;;;4994824;28;20232;-71
2020/12/22 11:17:29;;;;;;;18.00;8.73;;;5.80;99.90;;;;;;4994561;28;20244;-69
2020/12/22 11:19:55;;;;;;;20.30;9.60;;;5.80;99.90;;;;;;4994599;28;20328;-71
2020/12/22 11:22:22;;;;;;;24.83;10.60;;;5.90;99.90;;;;;;4994477;28;20229;-72
2020/12/22 11:24:48;;;;;;;21.53;11.00;;;5.90;99.90;;;;;;4994602;28;20202;-73
2020/12/22 11:27:14;;;;;;;21.63;9.17;;;5.90;99.90;;;;;;4994778;28;20192;-69
2020/12/22 11:29:42;;;;;;;18.33;9.00;;;5.90;99.90;;;;;;4994098;28;20208;-70
2020/12/22 11:32:09;;;;;;;23.63;9.03;;;5.90;99.90;;;;;;4994050;28;20201;-70
2020/12/22 11:34:37;;;;;;;22.27;9.17;;;5.90;99.90;;;;;;4993755;28;20217;-71
2020/12/22 11:37:03;;;;;;;25.90;9.40;;;5.90;99.90;;;;;;4994107;28;20622;-69
2020/12/22 11:39:30;;;;;;;21.73;8.83;;;5.90;99.90;;;;;;4993689;28;20280;-72
2020/12/22 11:42:00;;;;;;;22.20;9.90;;;5.90;99.90;;;;;;4994076;28;20228;-71
2020/12/22 11:44:27;;;;;;;21.80;9.77;;;5.90;99.90;;;;;;4994116;28;20259;-69
2020/12/22 11:46:54;;;;;;;22.03;9.23;;;5.90;99.90;;;;;;4993819;28;20219;-72
2020/12/22 11:49:20;;;;;;;20.77;10.10;;;5.90;99.90;;;;;;4994093;28;20654;-70
2020/12/22 11:51:47;;;;;;;21.40;9.80;;;5.90;99.90;;;;;;4993957;28;20201;-70
2020/12/22 11:54:14;;;;;;;21.77;9.57;;;5.90;99.90;;;;;;4993703;28;20265;-72
2020/12/22 11:56:40;;;;;;;25.23;10.77;;;5.90;99.90;;;;;;4993691;28;20277;-70
2020/12/22 11:59:07;;;;;;;22.47;10.00;;;5.80;99.90;;;;;;4993184;28;20249;-70
2020/12/22 12:01:33;;;;;;;23.20;10.03;;;5.80;99.90;;;;;;4993806;28;20240;-73
2020/12/22 12:03:59;;;;;;;20.83;9.93;;;5.80;99.90;;;;;;4993692;28;20255;-69
2020/12/22 12:06:27;;;;;;;19.87;10.17;;;5.80;99.90;;;;;;4993492;28;20591;-72
2020/12/22 12:08:55;;;;;;;19.17;9.23;;;5.80;99.90;;;;;;4993233;28;20201;-71
2020/12/22 12:11:21;;;;;;;19.77;10.10;;;5.80;99.90;;;;;;4993356;28;20288;-69
2020/12/22 12:13:47;;;;;;;19.67;9.53;;;5.80;99.90;;;;;;4993479;28;20587;-70
2020/12/22 12:16:16;;;;;;;28.30;11.60;;;5.80;99.90;;;;;;4993084;28;20592;-70
2020/12/22 12:18:43;;;;;;;23.07;10.07;;;5.80;99.90;;;;;;4992852;28;20687;-71
2020/12/22 12:21:13;;;;;;;29.07;11.60;;;5.80;99.90;;;;;;4991944;28;20204;-69
2020/12/22 12:23:39;;;;;;;24.47;11.07;;;5.80;99.90;;;;;;4992918;28;20233;-69
2020/12/22 12:26:07;;;;;;;23.17;9.47;;;5.70;99.90;;;;;;4993281;28;20648;-71
2020/12/22 12:28:33;;;;;;;24.10;10.93;;;5.70;99.90;;;;;;4992704;28;20659;-69
2020/12/22 12:30:59;;;;;;;26.40;11.10;;;5.70;99.90;;;;;;4992784;28;20305;-70
2020/12/22 12:33:26;;;;;;;23.13;11.27;;;5.70;99.90;;;;;;4992604;28;20236;-69
2020/12/22 12:35:53;;;;;;;22.93;11.07;;;5.70;99.90;;;;;;4992527;28;20539;-71
2020/12/22 12:38:19;;;;;;;24.50;11.20;;;5.70;99.90;;;;;;4992665;28;20332;-71
2020/12/22 12:40:45;;;;;;;31.03;12.63;;;5.70;99.90;;;;;;4992945;28;20197;-69
2020/12/22 12:43:13;;;;;;;23.17;11.53;;;5.70;99.90;;;;;;4993072;28;20244;-71
2020/12/22 12:45:39;;;;;;;25.03;11.27;;;5.70;99.90;;;;;;4992506;28;20710;-70
2020/12/22 12:48:06;;;;;;;27.17;11.50;;;5.70;99.90;;;;;;4992683;28;20221;-71
2020/12/22 12:50:32;;;;;;;24.50;10.43;;;5.70;99.90;;;;;;4992836;28;20209;-70